createdAt,value
2022-07-25T00:01:32.808Z,100484.66
2022-07-25T00:03:59.645Z,100482.31
2022-07-25T00:06:26.277Z,100485.94
2022-07-25T00:08:52.808Z,100477.91
2022-07-25T00:11:19.390Z,100473.69
2022-07-25T00:13:45.931Z,100478.78
2022-07-25T00:16:12.531Z,100473.75
2022-07-25T00:18:39.129Z,100477.75
2022-07-25T00:21:05.945Z,100476.28
2022-07-25T00:23:32.481Z,100473.97
2022-07-25T00:25:59.023Z,100467.00
2022-07-25T00:28:25.592Z,100475.28
2022-07-25T00:30:52.243Z,100464.50
2022-07-25T00:33:18.911Z,100470.88
2022-07-25T00:35:45.503Z,100477.63
2022-07-25T00:38:12.644Z,100464.94
2022-07-25T00:40:39.225Z,100474.66
2022-07-25T00:43:05.850Z,100470.44
2022-07-25T00:45:32.476Z,100473.81
2022-07-25T00:47:59.200Z,100475.53
2022-07-25T00:50:25.916Z,100471.13
2022-07-25T00:52:52.757Z,100473.84
2022-07-25T00:55:20.938Z,100476.19
2022-07-25T00:57:47.518Z,100475.56
2022-07-25T01:00:15.294Z,100477.25
2022-07-25T01:02:42.386Z,100473.44
2022-07-25T01:05:10.914Z,100475.16
2022-07-25T01:07:39.031Z,100474.94
2022-07-25T01:10:07.401Z,100469.84
2022-07-25T01:12:54.503Z,100468.59
2022-07-25T01:15:23.283Z,100477.44
2022-07-25T01:17:50.647Z,100474.44
2022-07-25T01:20:21.829Z,100467.50
2022-07-25T01:22:48.787Z,100460.94
2022-07-25T01:25:15.753Z,100466.63
2022-07-25T01:27:42.622Z,100461.97
2022-07-25T01:30:11.844Z,100461.94
2022-07-25T01:32:39.378Z,100459.22
2022-07-25T01:35:07.765Z,100459.19
2022-07-25T01:37:34.579Z,100457.03
2022-07-25T01:40:01.529Z,100458.47
2022-07-25T01:42:28.474Z,100448.34
2022-07-25T01:44:55.671Z,100449.78
2022-07-25T01:47:22.367Z,100450.78
2022-07-25T01:49:49.212Z,100449.06
2022-07-25T01:52:15.887Z,100444.41
2022-07-25T01:54:43.465Z,100448.81
2022-07-25T01:57:11.461Z,100450.66
2022-07-25T01:59:40.237Z,100454.84
2022-07-25T02:02:08.183Z,100449.50
2022-07-25T02:04:35.854Z,100457.50
2022-07-25T02:07:02.624Z,100455.31
2022-07-25T02:09:29.522Z,100455.63
2022-07-25T02:11:56.275Z,100445.72
2022-07-25T02:14:23.548Z,100448.56
2022-07-25T02:16:50.305Z,100444.75
2022-07-25T02:19:16.923Z,100446.34
2022-07-25T02:21:43.496Z,100460.16
2022-07-25T02:24:10.549Z,100454.06
2022-07-25T02:26:37.254Z,100447.28
2022-07-25T02:29:04.435Z,100456.91
2022-07-25T02:31:31.120Z,100459.78
2022-07-25T02:33:57.648Z,100456.59
2022-07-25T02:36:24.231Z,100451.06
2022-07-25T02:38:50.817Z,100459.84
2022-07-25T02:41:17.364Z,100452.81
2022-07-25T02:43:43.872Z,100450.47
2022-07-25T02:46:10.521Z,100453.31
2022-07-25T02:48:37.114Z,100462.09
2022-07-25T02:51:04.135Z,100460.50
2022-07-25T02:53:55.524Z,100459.66
2022-07-25T02:56:17.315Z,100464.41
2022-07-25T02:58:43.860Z,100464.16
2022-07-25T03:01:10.680Z,100470.19
2022-07-25T03:03:37.577Z,100475.06
2022-07-25T03:06:04.587Z,100473.97
2022-07-25T03:08:31.275Z,100471.44
2022-07-25T03:10:58.674Z,100473.69
2022-07-25T03:13:25.727Z,100468.41
2022-07-25T03:15:52.266Z,100477.00
2022-07-25T03:18:19.405Z,100473.13
2022-07-25T03:20:45.917Z,100476.41
2022-07-25T03:23:12.527Z,100479.03
2022-07-25T03:25:39.057Z,100472.47
2022-07-25T03:28:05.784Z,100478.97
2022-07-25T03:30:32.345Z,100469.94
2022-07-25T03:32:58.913Z,100484.94
2022-07-25T03:35:26.151Z,100480.81
2022-07-25T03:37:53.339Z,100481.38
2022-07-25T03:40:20.636Z,100480.53
2022-07-25T03:42:47.179Z,100488.03
2022-07-25T03:45:13.735Z,100488.03
2022-07-25T03:47:40.273Z,100486.16
2022-07-25T03:50:08.132Z,100487.88
2022-07-25T03:52:35.708Z,100481.38
2022-07-25T03:55:02.313Z,100486.81
2022-07-25T03:57:28.835Z,100482.41
2022-07-25T03:59:55.418Z,100480.03
2022-07-25T04:02:22.026Z,100485.88
2022-07-25T04:04:48.682Z,100484.84
2022-07-25T04:07:15.323Z,100489.91
2022-07-25T04:09:42.376Z,100481.19
2022-07-25T04:12:09.139Z,100492.38
2022-07-25T04:14:35.675Z,100486.56
2022-07-25T04:17:02.390Z,100484.00
2022-07-25T04:19:29.113Z,100493.69
2022-07-25T04:21:55.855Z,100497.75
2022-07-25T04:24:22.491Z,100488.34
2022-07-25T04:26:49.036Z,100493.25
2022-07-25T04:29:16.011Z,100482.81
2022-07-25T04:31:42.635Z,100489.59
2022-07-25T04:34:09.524Z,100491.72
2022-07-25T04:36:36.392Z,100486.56
2022-07-25T04:39:02.987Z,100492.97
2022-07-25T04:41:30.168Z,100495.78
2022-07-25T04:43:56.699Z,100487.88
2022-07-25T04:46:23.817Z,100493.41
2022-07-25T04:48:50.944Z,100497.91
2022-07-25T04:51:18.158Z,100485.41
2022-07-25T04:53:44.968Z,100490.97
2022-07-25T04:56:11.524Z,100491.69
2022-07-25T04:58:38.107Z,100489.91
2022-07-25T05:01:05.641Z,100495.88
2022-07-25T05:03:32.235Z,100499.34
2022-07-25T05:05:58.850Z,100494.44
2022-07-25T05:08:25.351Z,100491.38
2022-07-25T05:10:51.902Z,100494.81
2022-07-25T05:13:20.635Z,100496.38
2022-07-25T05:15:47.374Z,100493.13
2022-07-25T05:18:13.969Z,100489.91
2022-07-25T05:20:40.524Z,100487.84
2022-07-25T05:23:07.085Z,100486.66
2022-07-25T05:25:33.849Z,100489.25
2022-07-25T05:28:00.527Z,100488.03
2022-07-25T05:30:27.617Z,100487.91
2022-07-25T05:32:54.552Z,100485.84
2022-07-25T05:35:21.172Z,100488.00
2022-07-25T05:37:47.706Z,100484.03
2022-07-25T05:40:14.349Z,100483.94
2022-07-25T05:42:40.865Z,100477.22
2022-07-25T05:45:07.798Z,100477.88
2022-07-25T05:47:34.342Z,100473.06
2022-07-25T05:50:01.736Z,100467.44
2022-07-25T05:52:28.316Z,100475.03
2022-07-25T05:54:54.865Z,100479.25
2022-07-25T05:57:21.411Z,100481.81
2022-07-25T05:59:48.012Z,100478.00
2022-07-25T06:02:14.642Z,100470.44
2022-07-25T06:04:41.341Z,100471.97
2022-07-25T06:07:07.877Z,100484.44
2022-07-25T06:09:35.276Z,100482.53
2022-07-25T06:12:01.850Z,100482.31
2022-07-25T06:14:29.676Z,100474.91
2022-07-25T06:16:57.008Z,100472.78
2022-07-25T06:19:23.693Z,100473.66
2022-07-25T06:21:50.372Z,100472.34
2022-07-25T06:24:17.369Z,100471.28
2022-07-25T06:26:43.983Z,100470.22
2022-07-25T06:29:10.569Z,100471.06
2022-07-25T06:31:37.153Z,100465.34
2022-07-25T06:34:04.160Z,100464.25
2022-07-25T06:36:32.726Z,100466.78
2022-07-25T06:38:59.962Z,100471.63
2022-07-25T06:41:26.619Z,100460.63
2022-07-25T06:43:53.192Z,100471.13
2022-07-25T06:46:19.885Z,100457.78
2022-07-25T06:48:46.900Z,100454.56
2022-07-25T06:51:13.564Z,100454.91
2022-07-25T06:53:40.123Z,100454.69
2022-07-25T06:56:06.824Z,100458.22
2022-07-25T06:58:33.397Z,100451.00
2022-07-25T07:01:01.176Z,100450.34
2022-07-25T07:03:28.273Z,100451.13
2022-07-25T07:05:55.189Z,100450.00
2022-07-25T07:08:21.904Z,100441.72
2022-07-25T07:10:48.530Z,100442.50
2022-07-25T07:13:23.692Z,100446.63
2022-07-25T07:15:51.130Z,100452.91
2022-07-25T07:18:18.874Z,100442.72
2022-07-25T07:20:46.044Z,100439.88
2022-07-25T07:23:16.698Z,100436.25
2022-07-25T07:25:46.983Z,100436.16
2022-07-25T07:28:14.064Z,100441.41
2022-07-25T07:33:27.287Z,100430.22
2022-07-25T07:35:55.974Z,100426.56
2022-07-25T07:38:24.040Z,100435.78
2022-07-25T07:40:50.596Z,100429.34
2022-07-25T07:43:17.140Z,100435.66
2022-07-25T07:45:44.123Z,100427.56
2022-07-25T07:48:10.822Z,100428.31
2022-07-25T07:50:37.831Z,100427.75
2022-07-25T07:53:04.466Z,100439.06
2022-07-25T07:55:46.047Z,100432.38
2022-07-25T07:58:15.753Z,100427.38
2022-07-25T08:00:44.175Z,100429.78
2022-07-25T08:03:11.026Z,100427.75
2022-07-25T08:05:43.488Z,100429.16
2022-07-25T08:08:12.996Z,100429.03
2022-07-25T08:10:45.497Z,100424.00
2022-07-25T08:13:22.646Z,100428.09
2022-07-25T08:15:51.786Z,100427.38
2022-07-25T08:18:19.020Z,100422.47
2022-07-25T08:20:46.951Z,100421.88
2022-07-25T08:23:14.477Z,100417.44
2022-07-25T08:25:42.620Z,100412.50
2022-07-25T08:28:09.186Z,100403.06
2022-07-25T08:30:37.514Z,100407.13
2022-07-25T08:33:06.655Z,100401.00
2022-07-25T08:35:34.400Z,100410.56
2022-07-25T08:38:02.107Z,100402.50
2022-07-25T08:40:31.393Z,100399.44
2022-07-25T08:42:58.723Z,100406.75
2022-07-25T08:45:28.003Z,100401.56
2022-07-25T08:47:56.333Z,100400.59
2022-07-25T08:50:26.769Z,100394.09
2022-07-25T08:53:10.086Z,100389.00
2022-07-25T08:55:40.372Z,100388.38
2022-07-25T08:58:06.914Z,100394.41
2022-07-25T09:00:33.547Z,100399.84
2022-07-25T09:03:06.334Z,100388.16
2022-07-25T09:05:34.087Z,100381.47
2022-07-25T09:08:11.563Z,100378.94
2022-07-25T09:10:39.416Z,100389.88
2022-07-25T09:13:07.941Z,100368.84
2022-07-25T09:15:35.785Z,100381.66
2022-07-25T09:18:06.028Z,100368.72
2022-07-25T09:20:43.282Z,100373.31
2022-07-25T09:23:11.404Z,100375.38
2022-07-25T09:25:38.696Z,100368.47
2022-07-25T09:28:16.525Z,100370.53
2022-07-25T09:30:56.965Z,100366.81
2022-07-25T09:33:26.166Z,100361.91
2022-07-25T09:35:53.854Z,100359.75
2022-07-25T09:38:21.898Z,100356.00
2022-07-25T09:40:59.873Z,100354.84
2022-07-25T09:43:37.769Z,100352.50
2022-07-25T09:46:05.069Z,100352.25
2022-07-25T09:48:32.277Z,100345.97
2022-07-25T09:50:59.850Z,100346.38
2022-07-25T09:53:27.022Z,100343.63
2022-07-25T09:55:55.124Z,100336.16
2022-07-25T09:58:21.707Z,100338.09
2022-07-25T10:00:48.622Z,100334.53
2022-07-25T10:03:51.460Z,100326.56
2022-07-25T10:06:28.288Z,100330.31
2022-07-25T10:08:55.142Z,100314.88
2022-07-25T10:11:26.215Z,100318.56
2022-07-25T10:13:54.444Z,100316.44
2022-07-25T10:16:23.964Z,100314.81
2022-07-25T10:18:53.720Z,100309.00
2022-07-25T10:21:26.694Z,100304.84
2022-07-25T10:24:09.236Z,100295.69
2022-07-25T10:26:51.327Z,100297.34
2022-07-25T10:29:17.895Z,100299.84
2022-07-25T10:31:51.628Z,100297.34
2022-07-25T10:34:30.252Z,100300.13
2022-07-25T10:36:57.295Z,100291.81
2022-07-25T10:39:24.240Z,100290.72
2022-07-25T10:41:55.808Z,100280.69
2022-07-25T10:44:22.555Z,100277.44
2022-07-25T10:46:50.329Z,100281.88
2022-07-25T10:49:32.217Z,100270.75
2022-07-25T10:52:01.285Z,100269.66
2022-07-25T10:54:33.642Z,100268.56
2022-07-25T10:57:00.329Z,100267.16
2022-07-25T10:59:33.664Z,100258.25
2022-07-25T11:02:01.110Z,100260.75
2022-07-25T11:04:28.017Z,100264.66
2022-07-25T11:06:54.623Z,100260.47
2022-07-25T11:09:27.348Z,100253.22
2022-07-25T11:11:59.311Z,100252.94
2022-07-25T11:14:33.756Z,100251.25
2022-07-25T11:17:15.186Z,100246.28
2022-07-25T11:19:55.230Z,100234.56
2022-07-25T11:22:21.875Z,100221.47
2022-07-25T11:24:48.615Z,100218.34
2022-07-25T11:27:35.581Z,100223.00
2022-07-25T11:30:08.557Z,100218.66
2022-07-25T11:32:43.078Z,100220.25
2022-07-25T11:35:10.783Z,100208.47
2022-07-25T11:37:39.595Z,100201.63
2022-07-25T11:40:07.418Z,100196.06
2022-07-25T11:42:48.628Z,100188.75
2022-07-25T11:45:22.287Z,100194.22
2022-07-25T11:48:01.994Z,100199.25
2022-07-25T11:50:35.147Z,100189.31
2022-07-25T11:53:07.214Z,100196.94
2022-07-25T11:55:38.116Z,100188.03
2022-07-25T11:58:05.763Z,100179.22
2022-07-25T12:00:39.720Z,100182.44
2022-07-25T12:03:19.505Z,100179.06
2022-07-25T12:05:47.120Z,100168.47
2022-07-25T12:08:19.606Z,100167.75
2022-07-25T12:10:47.927Z,100168.47
2022-07-25T12:13:24.478Z,100162.81
2022-07-25T12:15:51.155Z,100163.63
2022-07-25T12:18:18.840Z,100153.81
2022-07-25T12:20:45.427Z,100149.53
2022-07-25T12:23:13.274Z,100143.31
2022-07-25T12:25:45.088Z,100139.28
2022-07-25T12:28:12.238Z,100145.44
2022-07-25T12:30:40.023Z,100136.94
2022-07-25T12:33:07.417Z,100140.03
2022-07-25T12:35:34.549Z,100122.78
2022-07-25T12:38:01.072Z,100120.16
2022-07-25T12:40:27.666Z,100123.88
2022-07-25T12:42:54.559Z,100110.88
2022-07-25T12:45:21.773Z,100117.69
2022-07-25T12:47:48.356Z,100108.34
2022-07-25T12:50:16.747Z,100113.50
2022-07-25T12:52:44.891Z,100102.53
2022-07-25T12:55:14.241Z,100090.88
2022-07-25T12:57:41.189Z,100091.56
2022-07-25T13:00:11.515Z,100086.06
2022-07-25T13:02:38.543Z,100084.47
2022-07-25T13:05:06.449Z,100083.88
2022-07-25T13:07:36.479Z,100079.81
2022-07-25T13:10:04.386Z,100076.81
2022-07-25T13:12:31.279Z,100078.44
2022-07-25T13:14:57.975Z,100068.50
2022-07-25T13:17:27.437Z,100065.00
2022-07-25T13:19:55.392Z,100062.50
2022-07-25T13:22:21.968Z,100061.53
2022-07-25T13:24:48.510Z,100055.44
2022-07-25T13:27:18.483Z,100052.25
2022-07-25T13:29:45.071Z,100051.44
2022-07-25T13:32:12.040Z,100054.31
2022-07-25T13:34:38.805Z,100057.00
2022-07-25T13:37:05.576Z,100041.88
2022-07-25T13:39:32.100Z,100032.78
2022-07-25T13:41:58.629Z,100033.28
2022-07-25T13:44:25.178Z,100040.09
2022-07-25T13:46:51.755Z,100026.03
2022-07-25T13:49:19.234Z,100019.72
2022-07-25T13:51:45.975Z,100016.28
2022-07-25T13:54:12.936Z,100013.97
2022-07-25T13:56:41.415Z,100013.78
2022-07-25T13:59:08.495Z,100014.03
2022-07-25T14:01:35.682Z,100011.75
2022-07-25T14:04:02.248Z,100001.69
2022-07-25T14:06:28.791Z,100003.53
2022-07-25T14:08:56.077Z,100000.13
2022-07-25T14:11:27.355Z,99986.53
2022-07-25T14:13:58.173Z,99981.81
2022-07-25T14:16:26.094Z,99985.34
2022-07-25T14:18:54.435Z,99974.63
2022-07-25T14:21:21.133Z,99969.34
2022-07-25T14:23:47.677Z,99972.72
2022-07-25T14:26:14.245Z,99974.50
2022-07-25T14:28:40.826Z,99971.44
2022-07-25T14:31:07.478Z,99962.31
2022-07-25T14:33:39.744Z,99961.72
2022-07-25T14:36:08.611Z,99964.47
2022-07-25T14:38:35.253Z,99962.25
2022-07-25T14:41:05.685Z,99960.44
2022-07-25T14:43:35.701Z,99952.75
2022-07-25T14:46:02.243Z,99952.69
2022-07-25T14:48:28.984Z,99939.66
2022-07-25T14:50:55.806Z,99944.41
2022-07-25T14:53:22.354Z,99935.56
2022-07-25T14:55:48.972Z,99940.97
2022-07-25T14:58:15.782Z,99938.34
2022-07-25T15:00:43.568Z,99937.69
2022-07-25T15:03:10.347Z,99925.47
2022-07-25T15:05:38.384Z,99924.97
2022-07-25T15:08:06.351Z,99919.75
2022-07-25T15:10:33.043Z,99919.19
2022-07-25T15:13:28.265Z,99908.44
2022-07-25T15:15:46.903Z,99903.63
2022-07-25T15:18:14.232Z,99898.47
2022-07-25T15:20:41.081Z,99905.91
2022-07-25T15:23:07.712Z,99908.13
2022-07-25T15:26:00.761Z,99891.53
2022-07-25T15:28:22.109Z,99896.88
2022-07-25T15:30:48.819Z,99890.94
2022-07-25T15:33:15.711Z,99877.84
2022-07-25T15:35:44.668Z,99881.84
2022-07-25T15:38:11.727Z,99885.69
2022-07-25T15:40:38.324Z,99880.03
2022-07-25T15:43:05.243Z,99877.69
2022-07-25T15:45:33.907Z,99872.88
2022-07-25T15:48:01.655Z,99872.19
2022-07-25T15:50:28.188Z,99868.97
2022-07-25T15:52:54.769Z,99868.94
2022-07-25T15:55:21.402Z,99866.91
2022-07-25T15:57:47.912Z,99867.47
2022-07-25T16:00:14.699Z,99870.53
2022-07-25T16:02:41.203Z,99862.66
2022-07-25T16:05:08.000Z,99866.50
2022-07-25T16:07:35.909Z,99863.31
2022-07-25T16:10:02.586Z,99862.41
2022-07-25T16:12:29.167Z,99864.75
2022-07-25T16:14:55.944Z,99863.94
2022-07-25T16:17:22.892Z,99860.59
2022-07-25T16:19:49.496Z,99856.31
2022-07-25T16:22:16.075Z,99862.78
2022-07-25T16:24:42.692Z,99858.22
2022-07-25T16:27:09.967Z,99860.38
2022-07-25T16:29:37.122Z,99851.38
2022-07-25T16:32:04.019Z,99856.13
2022-07-25T16:34:30.539Z,99852.53
2022-07-25T16:36:57.408Z,99848.09
2022-07-25T16:39:24.074Z,99851.19
2022-07-25T16:41:50.664Z,99853.25
2022-07-25T16:44:17.250Z,99847.56
2022-07-25T16:46:44.010Z,99848.00
2022-07-25T16:49:13.362Z,99852.72
2022-07-25T16:51:40.048Z,99849.25
2022-07-25T16:54:06.619Z,99853.88
2022-07-25T16:56:33.632Z,99846.00
2022-07-25T16:59:00.971Z,99847.47
2022-07-25T17:01:27.602Z,99847.34
2022-07-25T17:03:54.531Z,99850.03
2022-07-25T17:06:21.478Z,99846.84
2022-07-25T17:08:48.058Z,99834.22
2022-07-25T17:11:14.596Z,99841.06
2022-07-25T17:13:41.291Z,99838.56
2022-07-25T17:16:09.661Z,99837.72
2022-07-25T17:18:37.353Z,99841.16
2022-07-25T17:21:04.828Z,99838.16
2022-07-25T17:23:31.956Z,99834.44
2022-07-25T17:25:58.861Z,99834.72
2022-07-25T17:28:25.684Z,99834.78
2022-07-25T17:30:52.285Z,99844.63
2022-07-25T17:33:19.025Z,99841.28
2022-07-25T17:35:45.560Z,99841.78
2022-07-25T17:38:13.045Z,99836.41
2022-07-25T17:40:41.140Z,99840.50
2022-07-25T17:43:07.701Z,99841.22
2022-07-25T17:45:34.358Z,99833.63
2022-07-25T17:48:00.905Z,99842.66
2022-07-25T17:50:29.604Z,99831.63
2022-07-25T17:53:00.535Z,99836.81
2022-07-25T17:55:28.834Z,99826.72
2022-07-25T17:57:55.747Z,99840.03
2022-07-25T18:00:23.629Z,99838.19
2022-07-25T18:02:50.532Z,99836.69
2022-07-25T18:05:17.910Z,99827.75
2022-07-25T18:07:45.715Z,99825.09
2022-07-25T18:10:13.301Z,99828.63
2022-07-25T18:12:39.854Z,99828.81
2022-07-25T18:15:07.387Z,99820.56
2022-07-25T18:17:34.055Z,99813.72
2022-07-25T18:20:00.587Z,99823.56
2022-07-25T18:22:27.097Z,99814.56
2022-07-25T18:24:53.658Z,99821.78
2022-07-25T18:27:20.170Z,99819.63
2022-07-25T18:29:46.838Z,99809.44
2022-07-25T18:32:13.599Z,99813.13
2022-07-25T18:34:40.253Z,99812.91
2022-07-25T18:37:06.834Z,99814.03
2022-07-25T18:39:34.439Z,99818.78
2022-07-25T18:42:01.068Z,99814.88
2022-07-25T18:44:27.605Z,99809.31
2022-07-25T18:46:54.277Z,99812.66
2022-07-25T18:49:22.215Z,99806.28
2022-07-25T18:51:48.767Z,99816.44
2022-07-25T18:54:15.993Z,99811.13
2022-07-25T18:56:43.009Z,99819.66
2022-07-25T18:59:09.979Z,99817.41
2022-07-25T19:01:38.578Z,99819.78
2022-07-25T19:04:05.599Z,99825.31
2022-07-25T19:06:32.419Z,99828.84
2022-07-25T19:08:58.953Z,99831.00
2022-07-25T19:11:26.143Z,99825.69
2022-07-25T19:13:52.683Z,99829.19
2022-07-25T19:16:20.597Z,99824.72
2022-07-25T19:18:47.837Z,99820.97
2022-07-25T19:21:15.341Z,99826.88
2022-07-25T19:23:45.774Z,99822.91
2022-07-25T19:26:16.810Z,99822.44
2022-07-25T19:28:43.394Z,99827.69
2022-07-25T19:31:10.153Z,99829.56
2022-07-25T19:33:36.795Z,99822.84
2022-07-25T19:36:04.352Z,99825.75
2022-07-25T19:38:31.036Z,99817.25
2022-07-25T19:40:57.660Z,99824.97
2022-07-25T19:43:24.211Z,99820.84
2022-07-25T19:45:51.058Z,99820.63
2022-07-25T19:48:17.921Z,99824.50
2022-07-25T19:50:45.673Z,99822.03
2022-07-25T19:53:12.693Z,99822.63
2022-07-25T19:55:39.215Z,99822.19
2022-07-25T19:58:08.370Z,99834.13
2022-07-25T20:00:35.087Z,99826.03
2022-07-25T20:03:01.694Z,99822.25
2022-07-25T20:05:28.339Z,99832.34
2022-07-25T20:07:54.932Z,99834.31
2022-07-25T20:10:23.669Z,99831.69
2022-07-25T20:12:50.534Z,99830.88
2022-07-25T20:15:17.136Z,99826.59
2022-07-25T20:17:43.777Z,99827.81
2022-07-25T20:20:10.996Z,99824.22
2022-07-25T20:22:37.785Z,99830.31
2022-07-25T20:25:09.207Z,99831.25
2022-07-25T20:27:36.212Z,99828.66
2022-07-25T20:30:04.558Z,99828.03
2022-07-25T20:32:31.147Z,99821.59
2022-07-25T20:34:57.827Z,99826.03
2022-07-25T20:37:24.509Z,99827.78
2022-07-25T20:39:52.047Z,99826.72
2022-07-25T20:42:18.685Z,99821.31
2022-07-25T20:44:45.558Z,99821.66
2022-07-25T20:47:14.749Z,99817.91
2022-07-25T20:49:41.494Z,99817.19
2022-07-25T20:52:08.771Z,99819.88
2022-07-25T20:54:36.806Z,99821.22
2022-07-25T20:57:04.327Z,99820.00
2022-07-25T20:59:31.591Z,99820.88
2022-07-25T21:01:58.353Z,99822.88
2022-07-25T21:04:24.903Z,99823.97
2022-07-25T21:06:53.016Z,99817.94
2022-07-25T21:09:23.104Z,99820.53
2022-07-25T21:11:49.698Z,99823.34
2022-07-25T21:14:16.298Z,99810.31
2022-07-25T21:16:42.907Z,99809.94
2022-07-25T21:19:09.882Z,99811.94
2022-07-25T21:21:36.808Z,99815.59
2022-07-25T21:24:04.204Z,99814.22
2022-07-25T21:26:30.732Z,99820.19
2022-07-25T21:28:57.319Z,99820.25
2022-07-25T21:31:24.243Z,99821.53
2022-07-25T21:33:52.119Z,99815.66
2022-07-25T21:36:19.003Z,99816.75
2022-07-25T21:38:46.236Z,99821.16
2022-07-25T21:41:12.990Z,99816.63
2022-07-25T21:43:40.530Z,99804.22
2022-07-25T21:46:07.207Z,99812.91
2022-07-25T21:48:54.322Z,99817.38
2022-07-25T21:51:23.018Z,99810.91
2022-07-25T21:53:51.371Z,99803.41
2022-07-25T21:56:18.401Z,99809.53
2022-07-25T21:58:45.027Z,99808.09
2022-07-25T22:01:11.899Z,99809.38
2022-07-25T22:03:40.371Z,99806.69
2022-07-25T22:06:07.441Z,99803.19
2022-07-25T22:08:34.113Z,99814.13
2022-07-25T22:11:00.729Z,99815.59
2022-07-25T22:13:43.235Z,99806.91
2022-07-25T22:16:10.061Z,99807.75
2022-07-25T22:18:36.710Z,99805.84
2022-07-25T22:21:03.432Z,99804.56
2022-07-25T22:23:30.010Z,99800.75
2022-07-25T22:25:56.550Z,99802.47
2022-07-25T22:28:23.126Z,99800.53
2022-07-25T22:30:49.724Z,99798.47
2022-07-25T22:33:16.294Z,99799.59
2022-07-25T22:35:42.841Z,99804.25
2022-07-25T22:38:09.487Z,99807.81
2022-07-25T22:40:36.151Z,99804.00
2022-07-25T22:43:02.860Z,99809.94
2022-07-25T22:45:29.489Z,99816.94
2022-07-25T22:47:56.508Z,99817.41
2022-07-25T22:50:23.153Z,99838.69
2022-07-25T22:52:49.820Z,99833.38
2022-07-25T22:55:16.529Z,99830.63
2022-07-25T22:57:43.084Z,99827.69
2022-07-25T23:00:14.233Z,99834.44
2022-07-25T23:02:40.888Z,99831.34
2022-07-25T23:05:08.172Z,99832.63
2022-07-25T23:07:35.343Z,99830.63
2022-07-25T23:10:02.409Z,99842.94
2022-07-25T23:12:28.923Z,99840.88
2022-07-25T23:14:55.640Z,99842.00
2022-07-25T23:17:22.554Z,99847.31
2022-07-25T23:19:52.007Z,99859.34
2022-07-25T23:22:20.012Z,99850.53
2022-07-25T23:24:46.977Z,99848.88
2022-07-25T23:27:13.924Z,99847.41
2022-07-25T23:29:40.942Z,99855.22
2022-07-25T23:32:07.762Z,99857.53
2022-07-25T23:34:35.582Z,99860.88
2022-07-25T23:37:02.959Z,99859.22
2022-07-25T23:39:29.572Z,99864.69
2022-07-25T23:41:56.133Z,99862.38
2022-07-25T23:44:22.668Z,99857.53
2022-07-25T23:46:50.813Z,99854.56
2022-07-25T23:49:17.438Z,99849.06
2022-07-25T23:51:44.067Z,99849.69
2022-07-25T23:54:10.627Z,99848.44
2022-07-25T23:56:37.215Z,99848.47
2022-07-25T23:59:04.386Z,99840.69
